Aviation Digital Data Service (ADDS)

Output produced by TAFs form (0436 UTC 14 December 2017)
found at http://aviationweather.gov/adds/tafs/
 
KGUP 132326Z 1400/1424 26007KT P6SM FEW200 
     FM140100 VRB03KT P6SM SCT200 
     FM141500 02006KT P6SM BKN120 
     FM141800 01010G18KT P6SM BKN100 
     FM142200 02009KT P6SM SCT110